Time;durP1;ratioP1;P1;durP2;ratioP2;P2;SDS_P1;SDS_P2;PMS_P1;PMS_P2;Temp;Humidity;BMP_temperature;BMP_pressure;BME280_temperature;BME280_humidity;BME280_pressure;Samples;Min_cycle;Max_cycle;Signal;HPM_P1;HPM_P2
2021/08/05 00:04:13;;;;;;;8.97;6.90;;;;;;;20.11;63.60;98588.56;263752;1092;115197;-59
2021/08/05 00:09:16;;;;;;;12.90;6.75;;;;;;;20.08;63.75;98579.80;263376;1092;116734;-62
2021/08/05 00:14:20;;;;;;;7.75;6.55;;;;;;;20.05;63.88;98574.73;263834;1092;115751;-60
2021/08/05 00:19:24;;;;;;;9.85;5.73;;;;;;;20.03;63.99;98574.04;263582;1092;115705;-61
2021/08/05 00:24:28;;;;;;;7.88;6.03;;;;;;;20.03;64.16;98571.34;263470;1091;115358;-60
2021/08/05 00:29:31;;;;;;;10.70;6.98;;;;;;;20.05;64.40;98572.03;263562;1093;115516;-62
2021/08/05 00:34:35;;;;;;;9.15;6.20;;;;;;;20.08;64.53;98569.00;263711;1092;115246;-61
2021/08/05 00:39:39;;;;;;;8.63;6.45;;;;;;;20.06;64.52;98568.30;263148;1092;115387;-59
2021/08/05 00:44:43;;;;;;;9.55;6.45;;;;;;;20.04;64.32;98564.08;263616;1092;115345;-65
2021/08/05 00:49:47;;;;;;;10.08;5.93;;;;;;;20.01;64.94;98559.03;263520;1093;115287;-59
2021/08/05 00:54:51;;;;;;;8.35;5.33;;;;;;;20.02;64.73;98555.31;263469;1093;115129;-60
2021/08/05 00:59:55;;;;;;;7.48;5.65;;;;;;;20.05;64.86;98546.88;262631;1093;115119;-62
2021/08/05 01:04:59;;;;;;;11.23;7.08;;;;;;;20.05;64.87;98526.10;262670;1092;120165;-60
2021/08/05 01:10:20;;;;;;;8.50;6.95;;;;;;;20.02;64.89;98512.93;263333;1092;115069;-59
2021/08/05 01:16:01;;;;;;;9.57;7.10;;;;;;;19.96;65.01;98520.86;262369;1092;114595;-64
2021/08/05 01:22:21;;;;;;;8.20;5.70;;;;;;;19.90;65.48;98508.86;263547;1093;114607;-60
2021/08/05 01:28:01;;;;;;;6.60;5.60;;;;;;;19.88;65.57;98494.70;262834;1093;115169;-60
2021/08/05 01:33:38;;;;;;;7.00;6.03;;;;;;;19.88;65.76;98480.35;263498;1092;115254;-66
2021/08/05 01:39:20;;;;;;;7.77;6.07;;;;;;;19.86;65.28;98469.70;262961;1093;114659;-61
2021/08/05 01:44:58;;;;;;;9.17;6.80;;;;;;;19.81;65.76;98462.11;263355;1092;119625;-60
2021/08/05 01:50:36;;;;;;;7.77;5.57;;;;;;;19.77;65.67;98468.88;263071;1092;115381;-64
2021/08/05 01:56:13;;;;;;;9.53;6.13;;;;;;;19.75;65.85;98472.74;262691;1092;115376;-58
2021/08/05 02:01:52;;;;;;;7.43;5.90;;;;;;;19.76;66.14;98474.42;263759;1093;115489;-63
2021/08/05 02:07:38;;;;;;;8.70;6.83;;;;;;;19.72;66.28;98468.52;263235;1092;115184;-63
2021/08/05 02:13:27;;;;;;;12.33;6.73;;;;;;;19.69;66.10;98468.84;263347;1091;116645;-62
2021/08/05 02:19:05;;;;;;;7.63;6.10;;;;;;;19.66;66.34;98465.63;262476;1092;115130;-64
2021/08/05 02:24:43;;;;;;;7.83;6.53;;;;;;;19.66;66.30;98471.03;263686;1093;115274;-61
2021/08/05 02:30:21;;;;;;;8.53;7.07;;;;;;;19.67;66.08;98470.89;263535;1093;115252;-58
2021/08/05 02:35:58;;;;;;;10.00;7.10;;;;;;;19.65;66.38;98464.80;263104;1093;114836;-60
2021/08/05 02:41:29;;;;;;;11.20;6.93;;;;;;;19.60;66.34;98457.17;263058;1092;115022;-65
2021/08/05 02:47:06;;;;;;;7.53;6.30;;;;;;;19.59;66.33;98460.02;263529;1093;115311;-64
2021/08/05 02:52:45;;;;;;;7.57;5.87;;;;;;;19.57;66.81;98459.37;263003;1093;115076;-60
2021/08/05 02:58:23;;;;;;;7.70;6.57;;;;;;;19.56;66.90;98452.26;263525;1093;115310;-61
2021/08/05 03:04:00;;;;;;;9.90;6.83;;;;;;;19.51;66.87;98457.33;263515;1092;115613;-63
2021/08/05 03:09:37;;;;;;;8.43;6.47;;;;;;;19.44;66.93;98454.45;263750;1093;115145;-58
2021/08/05 03:15:15;;;;;;;9.80;6.40;;;;;;;19.37;67.03;98446.17;263356;1092;115230;-62
2021/08/05 03:20:52;;;;;;;8.27;5.73;;;;;;;19.36;67.10;98447.19;263591;1092;115121;-61
2021/08/05 03:26:35;;;;;;;8.37;6.53;;;;;;;19.32;66.87;98444.97;262833;1092;114916;-60
2021/08/05 03:32:12;;;;;;;7.63;6.70;;;;;;;19.30;67.01;98447.84;263648;1092;115122;-62
2021/08/05 03:37:49;;;;;;;11.73;6.20;;;;;;;19.28;67.33;98443.61;263590;1093;116822;-59
2021/08/05 03:43:26;;;;;;;9.03;6.17;;;;;;;19.20;67.34;98440.91;263547;1092;114997;-63
2021/08/05 03:49:03;;;;;;;9.53;6.37;;;;;;;19.21;67.61;98432.63;263555;1093;114819;-60
2021/08/05 03:54:40;;;;;;;10.90;7.50;;;;;;;19.23;67.53;98437.88;263523;1092;115710;-62
2021/08/05 04:00:20;;;;;;;10.33;8.27;;;;;;;19.21;67.72;98429.09;262618;1093;116416;-58
2021/08/05 04:05:57;;;;;;;10.80;9.70;;;;;;;19.65;68.33;98420.77;263375;1092;115161;-63
2021/08/05 04:11:34;;;;;;;10.10;7.67;;;;;;;19.58;67.41;98434.05;263817;1092;116597;-66
2021/08/05 04:17:11;;;;;;;28.33;23.20;;;;;;;19.82;68.17;98423.28;262878;1092;115123;-61
2021/08/05 04:22:48;;;;;;;12.00;10.47;;;;;;;20.08;67.65;98427.67;262297;1093;116526;-63
2021/08/05 04:28:25;;;;;;;16.40;13.77;;;;;;;20.21;67.68;98419.02;263427;1093;115571;-61
2021/08/05 04:34:02;;;;;;;47.53;38.13;;;;;;;20.53;67.56;98407.33;263446;1092;115531;-64
2021/08/05 04:39:39;;;;;;;10.83;8.57;;;;;;;20.36;66.26;98392.15;263131;1092;115096;-60
2021/08/05 04:45:18;;;;;;;11.47;8.60;;;;;;;20.03;65.98;98389.51;263635;1092;115177;-60
2021/08/05 04:50:55;;;;;;;12.70;8.43;;;;;;;19.72;66.08;98382.11;262759;1092;115482;-61
2021/08/05 04:56:32;;;;;;;9.47;7.70;;;;;;;19.48;66.27;98376.69;263435;1093;115700;-59
2021/08/05 05:02:09;;;;;;;7.73;6.90;;;;;;;19.33;66.92;98357.63;263805;1093;115197;-59
2021/08/05 05:07:47;;;;;;;8.57;6.80;;;;;;;19.23;67.12;98357.79;263601;1092;115448;-64
2021/08/05 05:13:24;;;;;;;7.70;6.90;;;;;;;19.18;67.33;98359.29;263427;1092;114714;-61
2021/08/05 05:19:01;;;;;;;6.73;5.57;;;;;;;19.09;67.54;98348.50;263360;1092;115153;-59
2021/08/05 05:24:38;;;;;;;8.10;5.50;;;;;;;19.02;67.63;98352.00;263465;1093;115388;-58
2021/08/05 05:30:16;;;;;;;4.23;3.10;;;;;;;19.01;68.09;98348.47;263646;1092;117739;-62
2021/08/05 05:35:53;;;;;;;5.17;3.60;;;;;;;19.00;68.20;98336.00;263345;1091;114944;-67
2021/08/05 05:41:30;;;;;;;4.03;3.67;;;;;;;18.98;68.39;98324.52;263585;1092;115003;-58
2021/08/05 05:47:07;;;;;;;5.17;4.10;;;;;;;18.95;67.88;98338.34;263206;1092;115044;-60
2021/08/05 05:52:45;;;;;;;5.00;3.70;;;;;;;18.98;68.21;98361.44;262937;1092;115466;-62
2021/08/05 05:58:15;;;;;;;5.13;4.27;;;;;;;18.99;68.34;98363.14;262988;1092;115113;-59
2021/08/05 06:03:52;;;;;;;7.67;5.30;;;;;;;19.03;68.11;98341.06;263467;1092;115219;-60
2021/08/05 06:09:29;;;;;;;9.67;6.57;;;;;;;19.02;68.80;98327.73;263356;1092;115449;-61
2021/08/05 06:15:06;;;;;;;7.57;6.83;;;;;;;18.96;68.88;98310.38;263588;1093;114582;-60
2021/08/05 06:20:43;;;;;;;8.00;6.20;;;;;;;18.98;69.11;98311.04;263592;1093;115243;-61
2021/08/05 06:26:20;;;;;;;6.30;5.30;;;;;;;19.00;69.23;98309.03;263608;1093;115785;-62
2021/08/05 06:31:57;;;;;;;6.53;5.83;;;;;;;19.03;69.17;98280.89;263564;1092;114936;-61
2021/08/05 06:37:41;;;;;;;8.87;5.33;;;;;;;19.09;69.22;98288.32;263557;1091;114991;-59
2021/08/05 06:43:19;;;;;;;7.67;4.60;;;;;;;19.12;69.38;98272.64;263171;1092;114888;-61
2021/08/05 06:48:58;;;;;;;4.60;4.20;;;;;;;19.15;69.15;98263.34;263532;1092;136067;-60
2021/08/05 06:54:35;;;;;;;5.00;4.50;;;;;;;19.10;68.82;98273.81;263073;1093;114974;-59
2021/08/05 07:00:12;;;;;;;6.10;4.40;;;;;;;19.10;69.32;98295.39;263681;1091;115574;-62
2021/08/05 07:05:49;;;;;;;5.07;4.57;;;;;;;19.06;69.39;98311.07;263649;1093;115302;-61
2021/08/05 07:11:26;;;;;;;5.30;4.30;;;;;;;19.02;69.59;98333.99;263619;1092;114887;-56
2021/08/05 07:17:03;;;;;;;5.20;4.40;;;;;;;19.02;69.15;98335.82;262716;1092;115227;-60
2021/08/05 07:22:41;;;;;;;5.20;4.70;;;;;;;19.00;69.09;98333.30;263709;1092;114698;-60
2021/08/05 07:28:17;;;;;;;24.13;18.47;;;;;;;19.02;70.10;98331.30;263633;1092;116046;-61
2021/08/05 07:33:54;;;;;;;6.60;5.33;;;;;;;18.99;69.26;98325.39;263539;1093;115355;-59
2021/08/05 07:39:31;;;;;;;7.20;5.90;;;;;;;19.03;69.71;98313.26;263856;1092;115601;-60
2021/08/05 07:45:09;;;;;;;7.60;6.80;;;;;;;19.04;69.34;98306.84;263869;1093;115172;-59
2021/08/05 07:50:46;;;;;;;8.63;7.40;;;;;;;19.00;69.46;98294.71;262807;1092;114635;-58
2021/08/05 07:56:23;;;;;;;6.83;5.87;;;;;;;18.94;69.10;98288.12;263428;1093;115563;-62
2021/08/05 08:02:00;;;;;;;28.53;23.00;;;;;;;18.94;69.59;98288.12;263278;1091;114684;-59
2021/08/05 08:07:45;;;;;;;6.83;6.13;;;;;;;18.96;69.50;98279.88;263180;1093;115524;-61
2021/08/05 08:13:22;;;;;;;8.03;5.90;;;;;;;19.00;69.79;98278.53;263773;1093;115201;-61
2021/08/05 08:18:48;;;;;;;5.90;5.37;;;;;;;18.94;69.81;98274.64;263978;1093;115381;-58
2021/08/05 08:24:25;;;;;;;5.50;5.00;;;;;;;18.90;69.58;98266.04;263651;1093;115181;-57
2021/08/05 08:29:28;;;;;;;4.70;4.03;;;;;;;18.88;69.66;98276.14;263895;1092;115127;-59
2021/08/05 08:34:32;;;;;;;5.90;4.67;;;;;;;18.87;69.81;98284.41;263474;1092;114705;-59
2021/08/05 08:39:36;;;;;;;5.53;5.03;;;;;;;18.86;69.77;98282.73;263379;1092;116044;-59
2021/08/05 08:44:39;;;;;;;6.47;5.20;;;;;;;18.86;70.05;98267.39;263831;1092;115084;-59
2021/08/05 08:49:48;;;;;;;10.30;7.83;;;;;;;18.91;70.09;98264.19;262942;1093;114951;-62
2021/08/05 08:54:55;;;;;;;6.07;5.33;;;;;;;18.97;70.13;98268.08;263423;1092;114895;-59
2021/08/05 09:00:00;;;;;;;7.67;5.57;;;;;;;19.00;70.45;98279.37;264009;1093;114846;-59
2021/08/05 09:05:06;;;;;;;6.87;5.70;;;;;;;18.98;70.07;98277.84;263924;1093;115779;-61
2021/08/05 09:10:10;;;;;;;5.30;4.80;;;;;;;18.97;69.96;98265.38;263368;1093;115205;-61
2021/08/05 09:15:33;;;;;;;5.80;4.93;;;;;;;18.98;70.37;98257.11;263535;1092;114759;-61
2021/08/05 09:20:37;;;;;;;7.73;5.50;;;;;;;19.02;70.24;98244.13;263922;1092;114722;-58
2021/08/05 09:25:41;;;;;;;6.73;5.53;;;;;;;19.09;70.60;98251.40;263522;1093;115044;-59
2021/08/05 09:30:45;;;;;;;5.73;5.15;;;;;;;19.08;70.55;98241.60;263945;1092;115040;-63
2021/08/05 09:35:51;;;;;;;5.50;4.77;;;;;;;19.10;70.18;98242.28;264014;1093;114897;-60
2021/08/05 09:41:04;;;;;;;6.30;5.33;;;;;;;19.13;70.41;98239.25;263649;1092;115361;-57
2021/08/05 09:46:07;;;;;;;6.77;5.20;;;;;;;19.17;70.53;98237.06;261858;1092;114793;-61
2021/08/05 09:51:14;;;;;;;7.50;5.95;;;;;;;19.19;70.70;98226.09;263761;1093;115377;-60
2021/08/05 09:56:18;;;;;;;6.77;5.13;;;;;;;19.15;70.16;98221.03;263608;1092;115012;-60
2021/08/05 10:01:22;;;;;;;8.35;5.50;;;;;;;19.15;70.68;98220.19;263947;1092;115247;-61
2021/08/05 10:06:26;;;;;;;7.25;6.20;;;;;;;19.20;70.90;98209.75;263852;1091;115383;-58
2021/08/05 10:11:38;;;;;;;7.15;6.45;;;;;;;19.21;70.72;98194.40;264016;1093;114675;-58
2021/08/05 10:16:42;;;;;;;9.27;5.87;;;;;;;19.19;70.74;98180.23;263052;1092;115214;-61
2021/08/05 10:21:48;;;;;;;6.73;6.07;;;;;;;19.19;70.88;98169.44;263744;1092;116007;-60
2021/08/05 10:26:52;;;;;;;9.30;5.80;;;;;;;19.20;70.66;98160.36;263746;1092;115618;-61
2021/08/05 10:31:56;;;;;;;8.23;6.60;;;;;;;19.19;70.72;98159.52;263601;1092;114503;-61
2021/08/05 10:37:02;;;;;;;6.10;5.50;;;;;;;19.18;70.64;98148.88;262748;1092;116028;-58
2021/08/05 10:42:11;;;;;;;6.03;5.43;;;;;;;19.21;70.70;98129.66;263763;1092;114997;-64
2021/08/05 10:47:24;;;;;;;7.10;5.40;;;;;;;19.21;70.70;98143.98;263287;1093;114947;-60
2021/08/05 10:52:34;;;;;;;7.73;6.57;;;;;;;19.18;70.77;98141.63;263917;1092;117849;-59
2021/08/05 10:57:38;;;;;;;7.47;6.77;;;;;;;19.17;70.78;98133.72;263296;1092;115911;-65
2021/08/05 11:02:53;;;;;;;7.65;6.45;;;;;;;19.13;70.61;98142.16;263442;1092;114639;-62
2021/08/05 11:08:07;;;;;;;8.70;7.47;;;;;;;19.12;70.85;98120.73;263883;1093;114452;-62
2021/08/05 11:13:10;;;;;;;10.70;8.50;;;;;;;19.14;71.17;98105.23;263957;1092;114743;-57
2021/08/05 11:18:16;;;;;;;12.80;9.07;;;;;;;19.16;71.11;98097.81;263630;1092;114834;-61
2021/08/05 11:23:40;;;;;;;12.67;8.80;;;;;;;19.17;71.32;98094.09;263807;1093;115085;-63
2021/08/05 11:28:52;;;;;;;13.40;9.25;;;;;;;19.18;71.07;98082.28;263845;1093;115281;-60
2021/08/05 11:33:57;;;;;;;13.13;9.57;;;;;;;19.18;71.02;98076.89;263854;1093;115081;-58
2021/08/05 11:39:07;;;;;;;15.33;11.37;;;;;;;19.21;71.44;98076.55;263246;1092;115176;-64
2021/08/05 11:44:25;;;;;;;14.20;10.37;;;;;;;19.22;71.34;98069.29;263762;1092;115433;-58
2021/08/05 11:49:57;;;;;;;14.10;10.63;;;;;;;19.22;71.33;98058.50;263879;1092;114973;-58
2021/08/05 11:55:02;;;;;;;17.13;12.10;;;;;;;19.23;71.33;98049.41;263447;1092;115500;-58
2021/08/05 12:00:31;;;;;;;17.17;12.57;;;;;;;19.19;70.93;98030.04;264068;1093;115230;-59
2021/08/05 12:05:55;;;;;;;13.40;10.77;;;;;;;19.17;71.19;98026.66;262804;1092;115304;-62
2021/08/05 12:10:59;;;;;;;14.20;10.43;;;;;;;19.19;70.95;98015.69;263913;1092;115166;-59
2021/08/05 12:16:03;;;;;;;19.00;13.00;;;;;;;19.21;71.60;98005.58;263901;1092;115814;-61
2021/08/05 12:21:08;;;;;;;20.45;13.50;;;;;;;19.26;71.53;97995.08;263650;1092;115478;-62
2021/08/05 12:31:20;;;;;;;16.53;12.60;;;;;;;19.24;71.43;97991.73;263735;1092;115001;-62
2021/08/05 12:36:24;;;;;;;16.60;13.13;;;;;;;19.26;71.78;97987.86;263260;1093;115518;-63
2021/08/05 12:41:37;;;;;;;17.95;13.33;;;;;;;19.24;71.56;97979.09;262503;1092;115222;-59
2021/08/05 12:46:59;;;;;;;16.07;12.40;;;;;;;19.22;71.41;97974.88;263573;1092;115479;-59
2021/08/05 12:52:05;;;;;;;14.27;11.33;;;;;;;19.20;71.54;97974.23;263606;1093;117369;-59
2021/08/05 12:57:16;;;;;;;16.53;12.17;;;;;;;19.23;71.64;97973.88;263132;1091;115740;-63
2021/08/05 13:02:20;;;;;;;14.47;11.83;;;;;;;19.24;71.71;97989.88;263233;1093;115244;-60
2021/08/05 13:07:40;;;;;;;13.57;9.57;;;;;;;19.24;71.72;97970.16;263022;1092;115656;-64
2021/08/05 13:12:48;;;;;;;12.30;8.90;;;;;;;19.23;71.56;97955.84;263225;1093;115217;-60
2021/08/05 13:17:52;;;;;;;13.13;9.00;;;;;;;19.19;71.69;97965.30;263259;1093;114969;-60
2021/08/05 13:23:00;;;;;;;11.53;9.13;;;;;;;19.17;71.59;97961.09;263112;1092;115306;-61
2021/08/05 13:28:15;;;;;;;11.40;7.57;;;;;;;19.15;71.63;97955.86;262859;1092;115289;-59
2021/08/05 13:33:25;;;;;;;10.43;6.93;;;;;;;19.19;72.04;97965.30;263039;1092;115531;-59
2021/08/05 13:38:48;;;;;;;9.70;7.63;;;;;;;19.20;71.76;97939.16;263536;1092;114859;-60
2021/08/05 13:43:51;;;;;;;11.88;8.55;;;;;;;19.15;71.83;97942.38;263488;1092;115179;-59
2021/08/05 13:48:57;;;;;;;13.08;7.90;;;;;;;19.11;72.01;97923.01;263686;1093;115304;-58
2021/08/05 13:54:01;;;;;;;9.50;7.17;;;;;;;19.06;71.84;97911.92;262782;1092;114921;-59
2021/08/05 13:59:05;;;;;;;9.00;7.35;;;;;;;19.09;72.29;97899.95;263463;1092;115386;-60
2021/08/05 14:04:10;;;;;;;8.28;7.05;;;;;;;19.10;72.33;97890.84;263241;1093;115128;-59
2021/08/05 14:09:15;;;;;;;9.37;6.10;;;;;;;19.14;72.58;97878.67;263127;1093;115610;-60
2021/08/05 14:14:19;;;;;;;;;;;;;;;19.16;72.18;97868.55;263171;1092;114843;-61
2021/08/05 14:19:22;;;;;;;8.93;5.87;;;;;;;19.12;72.15;97857.28;263528;1092;101791;-57
2021/08/05 14:24:26;;;;;;;7.13;5.23;;;;;;;19.09;72.21;97841.45;263260;1093;115985;-58
2021/08/05 14:29:30;;;;;;;7.87;4.50;;;;;;;19.12;72.39;97827.61;263145;1093;115289;-61
2021/08/05 14:34:34;;;;;;;5.30;4.23;;;;;;;19.15;72.53;97816.44;263303;1092;115442;-58
2021/08/05 14:39:38;;;;;;;;;;;;;;;19.14;72.28;97797.76;263040;1092;114966;-58
2021/08/05 14:44:43;;;;;;;7.43;3.30;;;;;;;19.13;72.36;97794.22;263814;1092;102275;-59
2021/08/05 14:49:47;;;;;;;3.75;2.45;;;;;;;19.11;72.29;97785.46;262964;1092;114767;-61
2021/08/05 14:54:50;;;;;;;2.37;1.97;;;;;;;19.08;72.00;97772.33;263078;1092;115109;-59
2021/08/05 14:59:54;;;;;;;3.93;2.53;;;;;;;19.04;72.18;97759.41;263923;1092;115005;-58
2021/08/05 15:04:58;;;;;;;3.18;2.50;;;;;;;18.98;72.38;97750.16;263664;1092;116286;-60
2021/08/05 15:10:03;;;;;;;2.30;2.00;;;;;;;18.95;71.97;97750.52;263671;1091;115684;-58
2021/08/05 15:15:08;;;;;;;3.43;2.53;;;;;;;18.96;72.62;97743.30;263643;1092;115172;-59
2021/08/05 15:20:13;;;;;;;11.23;6.13;;;;;;;18.96;72.52;97743.30;263737;1092;115222;-59
2021/08/05 15:25:18;;;;;;;3.60;2.90;;;;;;;18.97;72.64;97726.09;263899;1091;115736;-58
2021/08/05 15:30:21;;;;;;;5.00;2.40;;;;;;;18.90;72.54;97718.72;263942;1092;114593;-58
2021/08/05 15:35:25;;;;;;;4.97;2.47;;;;;;;18.88;72.85;97709.96;263685;1092;114947;-57
2021/08/05 15:40:30;;;;;;;4.18;2.70;;;;;;;18.90;72.63;97693.63;263382;1093;114978;-57
2021/08/05 15:45:33;;;;;;;3.58;2.85;;;;;;;18.87;72.47;97683.20;263045;1092;114954;-59
2021/08/05 15:50:37;;;;;;;2.60;2.00;;;;;;;18.85;72.57;97672.61;263703;1092;115141;-58
2021/08/05 15:55:41;;;;;;;41.70;30.23;;;;;;;18.88;72.78;97657.91;263487;1092;115651;-58
2021/08/05 16:00:44;;;;;;;3.07;2.43;;;;;;;18.90;72.37;97648.63;263864;1091;115556;-60
2021/08/05 16:05:49;;;;;;;65.07;53.37;;;;;;;18.95;73.06;97648.06;263988;1092;114969;-61
2021/08/05 16:10:53;;;;;;;2.57;2.37;;;;;;;18.90;72.32;97648.63;263823;1093;115058;-59
2021/08/05 16:15:56;;;;;;;3.27;1.97;;;;;;;18.82;72.49;97637.09;263947;1093;114785;-59
2021/08/05 16:21:00;;;;;;;5.25;1.90;;;;;;;18.77;72.81;97613.36;263890;1093;116146;-60
2021/08/05 16:26:05;;;;;;;2.65;2.13;;;;;;;18.78;72.65;97643.84;263162;1092;115033;-60
2021/08/05 16:31:09;;;;;;;4.90;2.27;;;;;;;18.73;73.08;97625.53;263544;1093;115494;-59
2021/08/05 16:36:12;;;;;;;2.43;2.10;;;;;;;18.74;72.63;97621.81;262818;1092;114963;-58
2021/08/05 16:41:16;;;;;;;4.05;2.18;;;;;;;18.75;72.76;97612.73;262935;1093;115998;-59
2021/08/05 16:46:41;;;;;;;2.60;2.07;;;;;;;18.71;72.81;97613.22;262851;1092;114826;-58
2021/08/05 16:51:46;;;;;;;24.20;18.27;;;;;;;18.76;73.39;97600.08;262208;1092;115656;-59
2021/08/05 16:56:49;;;;;;;3.15;1.88;;;;;;;18.74;73.02;97592.16;263253;1092;115419;-59
2021/08/05 17:01:53;;;;;;;3.33;1.93;;;;;;;18.73;73.01;97584.27;263292;1092;116061;-59
2021/08/05 17:06:57;;;;;;;1.83;1.53;;;;;;;18.68;73.12;97572.16;263474;1092;115059;-59
2021/08/05 17:12:01;;;;;;;1.65;1.45;;;;;;;18.68;72.86;97569.46;263669;1092;115354;-60
2021/08/05 17:17:05;;;;;;;2.40;1.83;;;;;;;18.71;72.96;97564.70;263774;1092;115015;-59
2021/08/05 17:22:09;;;;;;;1.78;1.63;;;;;;;18.70;73.18;97553.09;263510;1093;115564;-59
2021/08/05 17:27:12;;;;;;;3.50;1.63;;;;;;;18.63;73.04;97547.59;263655;1091;115375;-60
2021/08/05 17:32:16;;;;;;;2.10;1.83;;;;;;;18.61;72.76;97555.05;263204;1092;114820;-58
2021/08/05 17:37:20;;;;;;;2.63;2.23;;;;;;;18.57;73.33;97558.27;263601;1092;115825;-58
2021/08/05 17:42:23;;;;;;;3.90;1.80;;;;;;;18.51;73.11;97567.94;263629;1092;115239;-60
2021/08/05 17:47:27;;;;;;;2.50;1.67;;;;;;;18.55;73.38;97552.24;263065;1093;115118;-59
2021/08/05 17:52:30;;;;;;;141.10;104.67;;;;;;;18.71;74.06;97543.98;263559;1092;114976;-60
2021/08/05 17:57:34;;;;;;;4.47;2.70;;;;;;;18.81;73.44;97533.80;263666;1092;115836;-60
2021/08/05 18:02:38;;;;;;;2.58;1.85;;;;;;;18.73;73.10;97520.42;263505;1093;115397;-59
2021/08/05 18:07:48;;;;;;;3.63;1.50;;;;;;;18.67;72.82;97513.86;263390;1092;115152;-60
2021/08/05 18:12:53;;;;;;;2.13;1.25;;;;;;;18.65;72.53;97497.06;263469;1092;115777;-59
2021/08/05 18:18:00;;;;;;;2.33;1.67;;;;;;;18.53;72.77;97492.30;263275;1092;115670;-59
2021/08/05 18:23:04;;;;;;;3.28;1.33;;;;;;;18.45;73.08;97490.53;263067;1093;115274;-60
2021/08/05 18:28:08;;;;;;;2.10;1.60;;;;;;;18.42;73.22;97485.51;263533;1092;116377;-60
2021/08/05 18:33:11;;;;;;;2.78;1.43;;;;;;;18.41;73.31;97486.53;263545;1093;115155;-60
2021/08/05 18:38:15;;;;;;;7.87;6.33;;;;;;;18.44;73.20;97486.14;263661;1093;114685;-60
2021/08/05 18:43:19;;;;;;;1.28;1.18;;;;;;;18.45;73.37;97482.45;263444;1092;114945;-60
2021/08/05 18:48:23;;;;;;;1.37;0.93;;;;;;;18.48;73.30;97487.47;263641;1092;115122;-62
2021/08/05 18:53:27;;;;;;;3.05;0.98;;;;;;;18.51;73.14;97478.16;263489;1092;115012;-62
2021/08/05 18:58:30;;;;;;;77.97;61.87;;;;;;;18.54;73.56;97465.16;263532;1092;115141;-63
2021/08/05 19:03:34;;;;;;;2.27;1.07;;;;;;;18.72;73.03;97461.33;262574;1091;115718;-59
2021/08/05 19:08:39;;;;;;;1.85;0.90;;;;;;;18.65;72.54;97453.95;263307;1092;114682;-61
2021/08/05 19:13:43;;;;;;;21.73;16.03;;;;;;;18.61;73.10;97439.18;263478;1093;115222;-59
2021/08/05 19:18:46;;;;;;;2.30;1.30;;;;;;;18.53;72.38;97438.42;263406;1092;115227;-59
2021/08/05 19:23:50;;;;;;;1.40;0.90;;;;;;;18.40;72.71;97442.58;263434;1092;116379;-59
2021/08/05 19:28:53;;;;;;;2.97;0.87;;;;;;;18.32;72.27;97436.45;263261;1093;115350;-57
2021/08/05 19:33:57;;;;;;;1.47;0.70;;;;;;;18.34;72.89;97437.08;263199;1092;116091;-56
2021/08/05 19:39:01;;;;;;;3.37;0.97;;;;;;;18.29;73.00;97434.13;263732;1093;115146;-58
2021/08/05 19:44:07;;;;;;;1.87;1.03;;;;;;;18.25;72.87;97433.66;263245;1092;114938;-61
2021/08/05 19:49:11;;;;;;;1.08;0.70;;;;;;;18.23;72.64;97430.30;263289;1093;117173;-57
2021/08/05 19:54:15;;;;;;;1.83;0.90;;;;;;;18.26;72.99;97434.48;263336;1092;115467;-59
2021/08/05 19:59:18;;;;;;;2.03;0.90;;;;;;;18.27;73.14;97441.53;263440;1093;115305;-59
2021/08/05 20:04:22;;;;;;;2.23;0.60;;;;;;;18.20;72.55;97444.95;263203;1092;115089;-60
2021/08/05 20:09:26;;;;;;;2.20;0.85;;;;;;;18.14;72.72;97450.26;263409;1093;115431;-61
2021/08/05 20:14:29;;;;;;;2.83;0.97;;;;;;;18.18;72.55;97438.93;263153;1092;115054;-60
2021/08/05 20:19:33;;;;;;;1.10;0.90;;;;;;;18.17;72.81;97433.70;263405;1092;114935;-59
2021/08/05 20:24:37;;;;;;;1.18;0.78;;;;;;;18.10;72.88;97428.22;263751;1093;115206;-60
2021/08/05 20:29:41;;;;;;;0.77;0.63;;;;;;;18.07;72.88;97425.92;263280;1092;115257;-61
2021/08/05 20:34:45;;;;;;;0.97;0.70;;;;;;;18.10;73.03;97420.14;263648;1092;114837;-59
2021/08/05 20:39:49;;;;;;;1.07;0.70;;;;;;;18.10;73.16;97422.00;263383;1093;115197;-61
2021/08/05 20:44:52;;;;;;;1.87;1.10;;;;;;;18.05;72.69;97419.87;263580;1093;114943;-63
2021/08/05 20:49:56;;;;;;;1.13;0.63;;;;;;;18.04;72.39;97420.89;263272;1092;115101;-61
2021/08/05 20:54:59;;;;;;;3.53;0.83;;;;;;;18.04;72.48;97410.13;262905;1093;115630;-60
2021/08/05 21:00:05;;;;;;;1.57;0.47;;;;;;;17.99;72.68;97412.52;263704;1093;115455;-60
2021/08/05 21:05:09;;;;;;;0.73;0.43;;;;;;;17.97;72.47;97409.19;263049;1092;115583;-59
2021/08/05 21:10:13;;;;;;;1.43;0.58;;;;;;;18.00;72.71;97408.80;262954;1092;115328;-59
2021/08/05 21:15:17;;;;;;;1.60;1.27;;;;;;;17.99;72.66;97399.05;263374;1092;114824;-60
2021/08/05 21:20:20;;;;;;;1.73;1.43;;;;;;;17.98;72.84;97399.25;263452;1092;114888;-59
2021/08/05 21:25:25;;;;;;;0.93;0.70;;;;;;;17.93;72.46;97400.64;263073;1093;115062;-62
2021/08/05 21:30:29;;;;;;;2.63;0.97;;;;;;;17.94;72.40;97404.16;262681;1093;115372;-62
2021/08/05 21:35:32;;;;;;;0.30;0.30;;;;;;;17.96;72.31;97407.49;263611;1093;115561;-61
2021/08/05 21:40:36;;;;;;;0.63;0.47;;;;;;;17.91;72.77;97399.14;263065;1093;116108;-58
2021/08/05 21:45:40;;;;;;;1.00;0.43;;;;;;;17.88;72.69;97400.33;263397;1092;115363;-60
2021/08/05 21:50:44;;;;;;;0.65;0.45;;;;;;;17.87;72.56;97395.14;263578;1092;114770;-61
2021/08/05 21:55:47;;;;;;;1.65;0.60;;;;;;;17.82;72.52;97384.91;263554;1092;115302;-61
2021/08/05 22:00:51;;;;;;;4.58;4.13;;;;;;;17.80;72.16;97386.09;263202;1092;114659;-61
2021/08/05 22:06:03;;;;;;;0.40;0.40;;;;;;;17.79;72.31;97373.67;262135;1092;114640;-62
2021/08/05 22:11:08;;;;;;;1.10;0.80;;;;;;;17.79;72.41;97373.67;263615;1092;115069;-61
2021/08/05 22:16:12;;;;;;;2.28;0.53;;;;;;;17.79;72.72;97384.44;263292;1092;115114;-63
2021/08/05 22:21:19;;;;;;;1.03;0.70;;;;;;;17.74;72.76;97369.64;262887;1093;115078;-61
2021/08/05 22:26:24;;;;;;;;;;;;;;;17.72;72.79;97366.28;262932;1092;114614;-61
2021/08/05 22:31:30;;;;;;;1.13;0.50;;;;;;;17.73;72.96;97361.77;263211;1093;101277;-60
2021/08/05 22:36:37;;;;;;;0.50;0.50;;;;;;;17.71;72.49;97370.00;263644;1093;115179;-61
2021/08/05 22:41:41;;;;;;;0.70;0.70;;;;;;;17.68;72.90;97361.45;263439;1092;115312;-62
2021/08/05 22:46:47;;;;;;;0.80;0.50;;;;;;;17.63;72.68;97350.39;262187;1092;114937;-64
2021/08/05 22:51:52;;;;;;;3.58;1.08;;;;;;;17.61;72.69;97360.52;260893;1093;114833;-62
2021/08/05 22:56:57;;;;;;;0.63;0.50;;;;;;;17.59;72.89;97352.61;262823;1092;114917;-64
2021/08/05 23:02:02;;;;;;;0.40;0.40;;;;;;;17.55;73.10;97353.99;262633;1092;114971;-64
2021/08/05 23:07:07;;;;;;;1.03;0.40;;;;;;;17.53;72.62;97347.11;263016;1092;115122;-62
2021/08/05 23:12:13;;;;;;;0.50;0.30;;;;;;;17.55;73.09;97350.47;263354;1092;114972;-64
2021/08/05 23:17:17;;;;;;;0.40;0.20;;;;;;;17.54;72.70;97346.12;263291;1093;115039;-60
2021/08/05 23:22:21;;;;;;;2.83;0.80;;;;;;;17.52;73.22;97346.28;262178;1092;115386;-60
2021/08/05 23:27:27;;;;;;;0.70;0.40;;;;;;;17.47;72.73;97356.76;262710;1092;114912;-61
2021/08/05 23:32:32;;;;;;;0.57;0.30;;;;;;;17.43;72.67;97353.59;263331;1092;115204;-61
2021/08/05 23:37:37;;;;;;;2.63;0.50;;;;;;;17.45;72.96;97350.70;262832;1092;115128;-62
2021/08/05 23:42:42;;;;;;;1.43;0.67;;;;;;;17.41;73.42;97347.55;263609;1093;114670;-61
2021/08/05 23:47:46;;;;;;;1.90;0.50;;;;;;;17.38;73.07;97347.07;263637;1092;116193;-61
2021/08/05 23:52:51;;;;;;;1.47;0.43;;;;;;;17.36;73.39;97339.20;261722;1092;115134;-62
2021/08/05 23:57:55;;;;;;;0.85;0.48;;;;;;;17.33;73.38;97347.63;263545;1092;114986;-62
